createdAt,value
2018-06-25T00:01:53.189Z,88.35
2018-06-25T00:04:23.657Z,89.21
2018-06-25T00:06:53.770Z,89.67
2018-06-25T00:09:23.917Z,90.18
2018-06-25T00:11:54.545Z,90.63
2018-06-25T00:14:24.830Z,91.06
2018-06-25T00:16:55.245Z,91.44
2018-06-25T00:19:25.826Z,91.88
2018-06-25T00:21:56.069Z,92.12
2018-06-25T00:24:26.253Z,92.34
2018-06-25T00:26:56.895Z,92.89
2018-06-25T00:29:27.194Z,93.25
2018-06-25T00:31:58.253Z,93.35
2018-06-25T00:34:29.636Z,93.49
2018-06-25T00:36:59.924Z,93.57
2018-06-25T00:39:30.235Z,93.59
2018-06-25T00:42:00.869Z,94.10
2018-06-25T00:44:31.702Z,94.14
2018-06-25T00:47:01.747Z,94.15
2018-06-25T00:49:32.390Z,94.43
2018-06-25T00:52:02.687Z,94.50
2018-06-25T00:54:32.982Z,94.62
2018-06-25T00:57:03.458Z,94.79
2018-06-25T00:59:43.785Z,95.00
2018-06-25T01:02:14.337Z,95.12
2018-06-25T01:04:46.350Z,95.34
2018-06-25T01:07:16.905Z,95.53
2018-06-25T01:09:47.658Z,95.60
2018-06-25T01:12:17.666Z,95.67
2018-06-25T01:14:47.896Z,95.76
2018-06-25T01:17:17.816Z,95.65
2018-06-25T01:19:47.818Z,95.89
2018-06-25T01:22:18.299Z,95.96
2018-06-25T01:24:48.606Z,96.11
2018-06-25T01:27:19.449Z,96.51
2018-06-25T01:29:50.065Z,97.30
2018-06-25T01:32:20.262Z,97.61
2018-06-25T01:34:50.826Z,98.24
2018-06-25T01:37:21.149Z,98.52
2018-06-25T01:39:51.686Z,99.00
2018-06-25T01:42:22.107Z,99.46
2018-06-25T01:44:52.455Z,99.57
2018-06-25T01:47:23.215Z,99.79
2018-06-25T01:49:53.727Z,99.82
2018-06-25T01:52:24.450Z,100.00
2018-06-25T01:54:54.794Z,100.00
2018-06-25T01:57:25.299Z,100.00
2018-06-25T01:59:55.682Z,100.00
2018-06-25T02:02:25.967Z,100.00
2018-06-25T02:04:56.710Z,100.00
2018-06-25T02:07:27.074Z,100.00
2018-06-25T02:09:57.430Z,100.00
2018-06-25T02:12:28.091Z,100.00
2018-06-25T02:14:59.118Z,100.00
2018-06-25T02:17:29.220Z,100.00
2018-06-25T02:19:59.694Z,100.00
2018-06-25T02:22:30.487Z,100.00
2018-06-25T02:25:00.903Z,100.00
2018-06-25T02:27:31.402Z,100.00
2018-06-25T02:30:02.089Z,100.00
2018-06-25T02:32:32.211Z,100.00
2018-06-25T02:35:02.229Z,100.00
2018-06-25T02:37:32.617Z,100.00
2018-06-25T02:40:03.115Z,100.00
2018-06-25T02:42:33.550Z,100.00
2018-06-25T02:45:04.027Z,100.00
2018-06-25T02:47:34.297Z,100.00
2018-06-25T02:50:04.318Z,100.00
2018-06-25T02:52:34.915Z,100.00
2018-06-25T02:55:05.163Z,100.00
2018-06-25T02:57:35.335Z,100.00
2018-06-25T03:00:05.861Z,100.00
2018-06-25T03:02:36.132Z,100.00
2018-06-25T03:05:06.250Z,100.00
2018-06-25T03:07:37.006Z,100.00
2018-06-25T03:10:07.407Z,100.00
2018-06-25T03:12:37.268Z,100.00
2018-06-25T03:15:07.927Z,100.00
2018-06-25T03:17:37.757Z,100.00
2018-06-25T03:20:08.332Z,100.00
2018-06-25T03:22:38.631Z,100.00
2018-06-25T03:25:09.231Z,100.00
2018-06-25T03:27:43.238Z,100.00
2018-06-25T03:30:14.035Z,100.00
2018-06-25T03:32:44.327Z,100.00
2018-06-25T03:35:14.266Z,100.00
2018-06-25T03:37:44.587Z,100.00
2018-06-25T03:40:14.947Z,100.00
2018-06-25T03:42:45.644Z,100.00
2018-06-25T03:45:15.842Z,100.00
2018-06-25T03:47:46.299Z,100.00
2018-06-25T03:50:16.534Z,100.00
2018-06-25T03:52:46.904Z,100.00
2018-06-25T03:55:17.346Z,100.00
2018-06-25T03:57:47.394Z,100.00
2018-06-25T04:00:17.589Z,100.00
2018-06-25T04:02:47.635Z,100.00
2018-06-25T04:05:17.802Z,100.00
2018-06-25T04:07:47.786Z,100.00
2018-06-25T04:10:22.384Z,100.00
2018-06-25T04:12:52.599Z,100.00
2018-06-25T04:15:22.782Z,100.00
2018-06-25T04:17:53.337Z,100.00
2018-06-25T04:20:23.720Z,100.00
2018-06-25T04:22:53.826Z,100.00
2018-06-25T04:25:24.627Z,100.00
2018-06-25T04:27:54.906Z,100.00
2018-06-25T04:30:25.140Z,100.00
2018-06-25T04:32:54.814Z,100.00
2018-06-25T04:35:25.255Z,100.00
2018-06-25T04:37:55.636Z,100.00
2018-06-25T04:40:25.398Z,100.00
2018-06-25T04:42:56.136Z,100.00
2018-06-25T04:45:27.099Z,100.00
2018-06-25T04:47:57.446Z,100.00
2018-06-25T04:50:28.123Z,99.94
2018-06-25T04:52:58.325Z,99.76
2018-06-25T04:55:28.084Z,99.37
2018-06-25T04:57:58.825Z,98.82
2018-06-25T05:00:29.275Z,98.60
2018-06-25T05:02:59.571Z,97.62
2018-06-25T05:05:29.328Z,96.51
2018-06-25T05:07:59.525Z,96.42
2018-06-25T05:10:29.953Z,96.29
2018-06-25T05:13:00.211Z,95.58
2018-06-25T05:15:30.587Z,95.28
2018-06-25T05:18:01.082Z,95.18
2018-06-25T05:20:32.579Z,95.07
2018-06-25T05:23:03.032Z,95.28
2018-06-25T05:25:34.506Z,95.55
2018-06-25T05:28:04.922Z,95.88
2018-06-25T05:30:35.763Z,95.89
2018-06-25T05:33:06.227Z,95.74
2018-06-25T05:35:36.149Z,95.17
2018-06-25T05:38:06.657Z,94.69
2018-06-25T05:40:36.502Z,94.02
2018-06-25T05:43:07.451Z,93.79
2018-06-25T05:45:37.607Z,93.35
2018-06-25T05:48:07.445Z,93.11
2018-06-25T05:50:37.304Z,92.70
2018-06-25T05:53:07.267Z,91.92
2018-06-25T05:55:37.011Z,92.09
2018-06-25T05:58:06.692Z,92.11
2018-06-25T06:00:36.852Z,91.68
2018-06-25T06:03:07.187Z,90.87
2018-06-25T06:05:38.711Z,90.19
2018-06-25T06:08:09.247Z,89.95
2018-06-25T06:10:39.083Z,89.34
2018-06-25T06:13:08.919Z,89.62
2018-06-25T06:15:38.954Z,89.39
2018-06-25T06:18:12.945Z,88.99
2018-06-25T06:20:43.528Z,88.08
2018-06-25T06:23:14.136Z,86.98
2018-06-25T06:25:43.947Z,86.70
2018-06-25T06:28:13.703Z,87.04
2018-06-25T06:30:43.758Z,85.92
2018-06-25T06:33:13.531Z,85.38
2018-06-25T06:35:43.356Z,85.43
2018-06-25T06:38:13.423Z,84.93
2018-06-25T06:40:43.182Z,83.72
2018-06-25T06:43:12.979Z,83.57
2018-06-25T06:45:43.102Z,82.75
2018-06-25T06:48:12.866Z,81.76
2018-06-25T06:50:42.606Z,81.65
2018-06-25T06:53:12.694Z,82.48
2018-06-25T06:55:42.438Z,82.99
2018-06-25T06:58:12.561Z,83.76
2018-06-25T07:00:42.866Z,82.28
2018-06-25T07:03:13.102Z,77.07
2018-06-25T07:05:42.851Z,77.56
2018-06-25T07:08:13.291Z,77.61
2018-06-25T07:10:43.282Z,77.42
2018-06-25T07:13:13.036Z,77.54
2018-06-25T07:15:43.107Z,77.83
2018-06-25T07:18:12.851Z,78.27
2018-06-25T07:20:43.148Z,77.94
2018-06-25T07:23:13.687Z,76.85
2018-06-25T07:25:44.599Z,74.17
2018-06-25T07:28:15.051Z,74.69
2018-06-25T07:30:44.891Z,75.89
2018-06-25T07:33:15.378Z,77.17
2018-06-25T07:35:45.463Z,76.72
2018-06-25T07:38:15.227Z,74.99
2018-06-25T07:40:45.007Z,74.73
2018-06-25T07:43:15.566Z,74.89
2018-06-25T07:45:45.311Z,73.79
2018-06-25T07:48:15.571Z,71.84
2018-06-25T07:50:45.951Z,68.75
2018-06-25T07:53:15.911Z,66.80
2018-06-25T07:55:45.715Z,64.95
2018-06-25T07:58:16.217Z,64.65
2018-06-25T08:00:45.995Z,63.67
2018-06-25T08:03:15.718Z,59.33
2018-06-25T08:05:46.251Z,59.25
2018-06-25T08:08:16.349Z,60.20
2018-06-25T08:10:46.703Z,60.10
2018-06-25T08:13:16.743Z,59.79
2018-06-25T08:15:47.072Z,58.34
2018-06-25T08:18:17.363Z,55.73
2018-06-25T08:20:47.854Z,55.67
2018-06-25T08:23:18.083Z,55.99
2018-06-25T08:25:48.434Z,56.01
2018-06-25T08:28:19.130Z,54.56
2018-06-25T08:30:48.998Z,52.73
2018-06-25T08:33:19.291Z,52.02
2018-06-25T08:35:49.673Z,53.32
2018-06-25T08:38:20.211Z,54.18
2018-06-25T08:40:50.661Z,52.44
2018-06-25T08:43:20.768Z,53.07
2018-06-25T08:45:50.984Z,54.43
2018-06-25T08:48:20.734Z,54.78
2018-06-25T08:50:52.378Z,53.27
2018-06-25T08:53:22.688Z,53.29
2018-06-25T08:55:53.021Z,53.58
2018-06-25T08:58:23.420Z,53.21
2018-06-25T09:00:53.675Z,48.92
2018-06-25T09:03:23.693Z,50.59
2018-06-25T09:05:53.451Z,50.57
2018-06-25T09:08:24.506Z,49.22
2018-06-25T09:10:56.455Z,51.43
2018-06-25T09:13:27.627Z,51.56
2018-06-25T09:15:57.797Z,52.67
2018-06-25T09:18:28.257Z,53.60
2018-06-25T09:20:58.627Z,53.86
2018-06-25T09:23:29.839Z,52.60
2018-06-25T09:25:59.939Z,51.35
2018-06-25T09:28:29.718Z,48.38
2018-06-25T09:30:59.864Z,49.30
2018-06-25T09:33:30.580Z,50.32
2018-06-25T09:36:00.832Z,49.26
2018-06-25T09:38:30.596Z,48.77
2018-06-25T09:41:00.866Z,48.04
2018-06-25T09:43:30.892Z,47.69
2018-06-25T09:46:01.206Z,47.87
2018-06-25T09:48:31.858Z,48.75
2018-06-25T09:51:01.743Z,49.90
2018-06-25T09:53:31.529Z,50.34
2018-06-25T09:56:02.078Z,50.11
2018-06-25T09:58:31.863Z,49.34
2018-06-25T10:01:06.742Z,50.27
2018-06-25T10:03:37.418Z,48.68
2018-06-25T10:06:08.259Z,50.05
2018-06-25T10:08:39.530Z,49.21
2018-06-25T10:11:09.699Z,48.53
2018-06-25T10:13:39.637Z,47.63
2018-06-25T10:16:09.611Z,47.14
2018-06-25T10:18:39.745Z,45.21
2018-06-25T10:21:10.254Z,44.63
2018-06-25T10:23:44.219Z,43.90
2018-06-25T10:26:14.855Z,44.11
2018-06-25T10:28:45.035Z,45.31
2018-06-25T10:31:15.144Z,46.66
2018-06-25T10:33:49.432Z,46.31
2018-06-25T10:36:19.719Z,46.83
2018-06-25T10:38:49.562Z,48.65
2018-06-25T10:41:20.071Z,48.53
2018-06-25T10:43:49.907Z,47.76
2018-06-25T10:46:20.136Z,46.44
2018-06-25T10:48:54.463Z,44.32
2018-06-25T10:51:24.403Z,42.08
2018-06-25T10:53:54.931Z,42.23
2018-06-25T10:56:25.052Z,40.98
2018-06-25T10:58:54.891Z,43.27
2018-06-25T11:01:25.213Z,44.13
2018-06-25T11:03:54.979Z,44.49
2018-06-25T11:06:24.959Z,44.96
2018-06-25T11:08:55.106Z,45.51
2018-06-25T11:11:24.922Z,45.01
2018-06-25T11:13:54.723Z,45.01
2018-06-25T11:16:24.871Z,43.69
2018-06-25T11:18:54.704Z,44.32
2018-06-25T11:21:24.527Z,45.02
2018-06-25T11:23:54.598Z,42.77
2018-06-25T11:26:24.395Z,42.97
2018-06-25T11:28:54.294Z,43.95
2018-06-25T11:31:24.365Z,42.01
2018-06-25T11:33:54.134Z,41.55
2018-06-25T11:36:23.883Z,41.49
2018-06-25T11:38:53.953Z,42.75
2018-06-25T11:41:23.945Z,42.69
2018-06-25T11:43:53.893Z,42.29
2018-06-25T11:46:24.632Z,41.58
2018-06-25T11:48:54.483Z,42.09
2018-06-25T11:51:25.695Z,42.14
2018-06-25T11:53:55.835Z,42.45
2018-06-25T11:56:25.935Z,42.51
2018-06-25T11:58:55.633Z,42.87
2018-06-25T12:01:26.021Z,41.70
2018-06-25T12:03:55.839Z,43.22
2018-06-25T12:06:25.590Z,41.04
2018-06-25T12:08:55.671Z,40.59
2018-06-25T12:11:25.445Z,41.37
2018-06-25T12:13:55.555Z,42.54
2018-06-25T12:16:26.542Z,40.81
2018-06-25T12:18:57.331Z,40.17
2018-06-25T12:21:27.158Z,38.22
2018-06-25T12:23:57.946Z,38.47
2018-06-25T12:26:27.718Z,39.43
2018-06-25T12:28:57.603Z,39.37
2018-06-25T12:31:27.744Z,39.15
2018-06-25T12:33:57.526Z,39.86
2018-06-25T12:36:27.275Z,39.95
2018-06-25T12:38:57.379Z,39.28
2018-06-25T12:41:27.643Z,40.03
2018-06-25T12:43:57.435Z,40.82
2018-06-25T12:46:27.535Z,40.30
2018-06-25T12:48:58.150Z,40.03
2018-06-25T12:51:27.940Z,38.97
2018-06-25T12:53:58.737Z,37.79
2018-06-25T12:56:28.569Z,38.21
2018-06-25T12:58:58.962Z,38.36
2018-06-25T13:01:29.083Z,38.40
2018-06-25T13:03:59.402Z,38.48
2018-06-25T13:06:29.130Z,38.26
2018-06-25T13:08:59.776Z,37.27
2018-06-25T13:11:29.901Z,37.33
2018-06-25T13:14:00.088Z,37.92
2018-06-25T13:16:30.720Z,37.83
2018-06-25T13:19:00.506Z,37.73
2018-06-25T13:21:30.544Z,37.31
2018-06-25T13:24:00.922Z,38.23
2018-06-25T13:26:30.895Z,37.61
2018-06-25T13:29:00.812Z,37.60
2018-06-25T13:31:31.400Z,37.74
2018-06-25T13:34:01.636Z,36.77
2018-06-25T13:36:31.696Z,37.51
2018-06-25T13:39:02.363Z,36.95
2018-06-25T13:41:32.702Z,36.79
2018-06-25T13:44:02.559Z,37.59
2018-06-25T13:46:33.295Z,38.28
2018-06-25T13:49:03.753Z,38.40
2018-06-25T13:51:33.795Z,38.85
2018-06-25T13:54:04.367Z,39.27
2018-06-25T13:56:34.411Z,38.95
2018-06-25T13:59:04.542Z,38.62
2018-06-25T14:01:35.676Z,38.95
2018-06-25T14:04:05.804Z,38.27
2018-06-25T14:06:37.360Z,38.78
2018-06-25T14:09:11.100Z,38.66
2018-06-25T14:11:41.580Z,39.66
2018-06-25T14:14:12.869Z,40.80
2018-06-25T14:16:44.463Z,41.22
2018-06-25T14:19:17.440Z,42.05
2018-06-25T14:21:48.069Z,42.60
2018-06-25T14:24:23.127Z,43.09
2018-06-25T14:27:04.139Z,43.17
2018-06-25T14:29:41.599Z,41.76
2018-06-25T14:32:16.803Z,42.54
2018-06-25T14:34:53.020Z,42.98
2018-06-25T14:37:23.055Z,41.87
2018-06-25T14:39:53.795Z,42.28
2018-06-25T14:42:24.531Z,42.62
2018-06-25T14:44:55.720Z,42.91
2018-06-25T14:47:25.952Z,43.19
2018-06-25T14:49:56.930Z,42.82
2018-06-25T14:52:26.937Z,42.88
2018-06-25T14:54:57.411Z,42.57
2018-06-25T14:57:27.555Z,41.13
2018-06-25T14:59:58.070Z,40.85
2018-06-25T15:02:29.881Z,41.46
2018-06-25T15:05:00.060Z,42.20
2018-06-25T15:07:30.578Z,42.41
2018-06-25T15:10:00.639Z,43.22
2018-06-25T15:12:30.787Z,43.18
2018-06-25T15:15:01.309Z,43.61
2018-06-25T15:17:31.630Z,43.68
2018-06-25T15:20:01.818Z,44.02
2018-06-25T15:22:32.591Z,44.52
2018-06-25T15:25:02.737Z,45.38
2018-06-25T15:27:35.571Z,46.58
2018-06-25T15:30:06.159Z,46.89
2018-06-25T15:32:36.887Z,47.06
2018-06-25T15:35:13.073Z,47.31
2018-06-25T15:37:43.546Z,47.26
2018-06-25T15:40:14.915Z,47.33
2018-06-25T15:42:45.161Z,47.26
2018-06-25T15:45:16.628Z,46.93
2018-06-25T15:47:46.692Z,47.03
2018-06-25T15:50:16.861Z,46.83
2018-06-25T15:52:47.421Z,46.85
2018-06-25T15:55:17.756Z,46.70
2018-06-25T15:57:48.020Z,46.25
2018-06-25T16:00:19.286Z,45.83
2018-06-25T16:02:49.490Z,46.06
2018-06-25T16:05:19.885Z,46.26
2018-06-25T16:07:50.383Z,46.97
2018-06-25T16:10:20.576Z,47.47
2018-06-25T16:12:50.969Z,47.62
2018-06-25T16:15:21.603Z,47.89
2018-06-25T16:17:51.650Z,48.16
2018-06-25T16:20:21.770Z,48.20
2018-06-25T16:22:52.271Z,48.30
2018-06-25T16:25:22.693Z,48.62
2018-06-25T16:27:53.368Z,48.81
2018-06-25T16:30:24.571Z,48.61
2018-06-25T16:32:54.459Z,48.72
2018-06-25T16:35:25.601Z,48.76
2018-06-25T16:37:55.696Z,48.97
2018-06-25T16:40:25.727Z,49.43
2018-06-25T16:42:55.983Z,49.79
2018-06-25T16:45:26.095Z,50.65
2018-06-25T16:47:55.935Z,51.38
2018-06-25T16:50:26.737Z,51.49
2018-06-25T16:52:58.219Z,51.99
2018-06-25T16:55:28.574Z,52.36
2018-06-25T16:57:58.703Z,52.62
2018-06-25T17:00:29.222Z,52.78
2018-06-25T17:02:59.064Z,52.90
2018-06-25T17:05:29.311Z,53.34
2018-06-25T17:07:59.911Z,53.69
2018-06-25T17:10:29.861Z,54.00
2018-06-25T17:13:01.044Z,54.19
2018-06-25T17:15:31.368Z,54.63
2018-06-25T17:18:01.400Z,54.86
2018-06-25T17:20:31.652Z,54.73
2018-06-25T17:23:01.921Z,54.46
2018-06-25T17:25:31.779Z,53.96
2018-06-25T17:28:01.995Z,54.14
2018-06-25T17:30:32.409Z,54.13
2018-06-25T17:33:03.026Z,53.44
2018-06-25T17:35:34.076Z,53.88
2018-06-25T17:38:03.919Z,54.59
2018-06-25T17:40:34.126Z,54.89
2018-06-25T17:43:05.441Z,55.53
2018-06-25T17:45:36.092Z,55.83
2018-06-25T17:48:07.082Z,56.43
2018-06-25T17:50:38.855Z,56.80
2018-06-25T17:53:11.581Z,57.16
2018-06-25T17:55:42.758Z,56.79
2018-06-25T17:58:14.709Z,57.09
2018-06-25T18:00:44.818Z,57.58
2018-06-25T18:03:15.119Z,57.80
2018-06-25T18:05:45.421Z,58.05
2018-06-25T18:08:15.611Z,58.23
2018-06-25T18:10:45.662Z,58.36
2018-06-25T18:13:16.559Z,58.49
2018-06-25T18:15:47.103Z,58.29
2018-06-25T18:18:17.206Z,58.16
2018-06-25T18:20:47.726Z,58.33
2018-06-25T18:23:18.526Z,58.43
2018-06-25T18:25:48.786Z,58.45
2018-06-25T18:28:19.103Z,58.57
2018-06-25T18:30:49.862Z,58.73
2018-06-25T18:33:20.227Z,58.65
2018-06-25T18:35:50.547Z,59.41
2018-06-25T18:38:20.995Z,59.47
2018-06-25T18:40:50.871Z,59.78
2018-06-25T18:43:20.688Z,60.05
2018-06-25T18:45:50.980Z,60.32
2018-06-25T18:48:21.563Z,60.49
2018-06-25T18:50:52.052Z,60.56
2018-06-25T18:53:22.435Z,60.83
2018-06-25T18:55:52.870Z,61.03
2018-06-25T18:58:22.952Z,61.42
2018-06-25T19:00:53.324Z,61.85
2018-06-25T19:03:23.385Z,62.40
2018-06-25T19:05:54.336Z,62.58
2018-06-25T19:08:24.584Z,62.70
2018-06-25T19:10:55.500Z,62.82
2018-06-25T19:13:25.478Z,63.21
2018-06-25T19:15:55.787Z,63.37
2018-06-25T19:18:25.811Z,63.92
2018-06-25T19:20:55.767Z,64.29
2018-06-25T19:23:26.295Z,64.37
2018-06-25T19:25:56.823Z,64.84
2018-06-25T19:28:26.978Z,64.80
2018-06-25T19:30:57.360Z,65.16
2018-06-25T19:33:28.438Z,64.94
2018-06-25T19:35:58.956Z,65.06
2018-06-25T19:38:30.081Z,65.38
2018-06-25T19:41:00.086Z,65.35
2018-06-25T19:43:30.229Z,65.93
2018-06-25T19:46:00.493Z,66.14
2018-06-25T19:48:30.461Z,66.25
2018-06-25T19:51:01.559Z,67.13
2018-06-25T19:53:32.063Z,67.17
2018-06-25T19:56:02.035Z,67.20
2018-06-25T19:58:32.095Z,67.45
2018-06-25T20:01:02.707Z,67.88
2018-06-25T20:03:33.436Z,67.84
2018-06-25T20:06:03.700Z,67.74
2018-06-25T20:08:33.855Z,67.85
2018-06-25T20:11:04.094Z,67.88
2018-06-25T20:13:34.108Z,68.03
2018-06-25T20:16:04.604Z,68.22
2018-06-25T20:18:34.607Z,68.50
2018-06-25T20:21:04.710Z,68.29
2018-06-25T20:23:35.027Z,68.27
2018-06-25T20:26:05.243Z,68.29
2018-06-25T20:28:35.227Z,68.35
2018-06-25T20:31:05.643Z,68.21
2018-06-25T20:33:35.662Z,68.42
2018-06-25T20:36:06.166Z,68.38
2018-06-25T20:38:36.627Z,68.39
2018-06-25T20:41:07.287Z,68.39
2018-06-25T20:43:37.316Z,68.52
2018-06-25T20:46:07.727Z,68.64
2018-06-25T20:48:37.706Z,68.77
2018-06-25T20:51:08.761Z,68.97
2018-06-25T20:53:40.079Z,69.20
2018-06-25T20:56:10.795Z,69.48
2018-06-25T20:58:41.252Z,69.64
2018-06-25T21:01:11.680Z,69.78
2018-06-25T21:03:41.946Z,70.22
2018-06-25T21:06:12.323Z,70.22
2018-06-25T21:08:42.401Z,70.19
2018-06-25T21:11:12.430Z,70.31
2018-06-25T21:13:42.263Z,70.35
2018-06-25T21:16:12.689Z,70.48
2018-06-25T21:18:42.638Z,70.50
2018-06-25T21:21:12.776Z,70.50
2018-06-25T21:23:43.018Z,70.49
2018-06-25T21:26:12.939Z,70.39
2018-06-25T21:28:43.970Z,70.44
2018-06-25T21:31:14.312Z,70.32
2018-06-25T21:33:44.482Z,70.27
2018-06-25T21:36:14.354Z,70.23
2018-06-25T21:38:44.563Z,70.27
2018-06-25T21:41:14.493Z,70.27
2018-06-25T21:43:45.180Z,70.43
2018-06-25T21:46:17.333Z,70.44
2018-06-25T21:48:47.168Z,70.45
2018-06-25T21:51:18.319Z,70.47
2018-06-25T21:53:48.658Z,70.51
2018-06-25T21:56:18.652Z,70.56
2018-06-25T21:58:49.043Z,70.52
2018-06-25T22:01:19.067Z,70.78
2018-06-25T22:03:49.952Z,70.73
2018-06-25T22:06:20.172Z,70.74
2018-06-25T22:08:50.255Z,70.79
2018-06-25T22:11:20.251Z,70.85
2018-06-25T22:13:51.311Z,70.77
2018-06-25T22:16:22.233Z,70.81
2018-06-25T22:18:52.271Z,71.01
2018-06-25T22:21:22.574Z,71.06
2018-06-25T22:23:52.505Z,71.08
2018-06-25T22:26:22.515Z,71.39
2018-06-25T22:28:52.618Z,71.40
2018-06-25T22:31:22.432Z,71.46
2018-06-25T22:33:52.240Z,71.48
2018-06-25T22:36:22.318Z,71.49
2018-06-25T22:38:53.210Z,71.62
2018-06-25T22:41:23.496Z,71.81
2018-06-25T22:43:58.422Z,72.07
2018-06-25T22:46:28.251Z,72.13
2018-06-25T22:48:58.518Z,72.22
2018-06-25T22:51:29.242Z,72.49
2018-06-25T22:53:59.362Z,72.49
2018-06-25T22:56:29.130Z,72.59
2018-06-25T22:58:59.803Z,72.61
2018-06-25T23:01:31.068Z,72.61
2018-06-25T23:04:00.968Z,72.62
2018-06-25T23:06:31.548Z,72.64
2018-06-25T23:09:01.401Z,72.65
2018-06-25T23:11:31.571Z,72.81
2018-06-25T23:14:02.148Z,72.84
2018-06-25T23:16:31.924Z,72.85
2018-06-25T23:19:02.779Z,72.92
2018-06-25T23:21:32.863Z,72.96
2018-06-25T23:24:02.660Z,73.06
2018-06-25T23:26:32.451Z,73.15
2018-06-25T23:29:03.139Z,73.17
2018-06-25T23:31:33.294Z,73.16
2018-06-25T23:34:03.655Z,73.16
2018-06-25T23:36:34.161Z,73.15
2018-06-25T23:39:05.068Z,73.18
2018-06-25T23:41:35.506Z,73.16
2018-06-25T23:44:06.023Z,73.25
2018-06-25T23:46:36.260Z,73.25
2018-06-25T23:49:06.587Z,73.11
2018-06-25T23:51:37.163Z,73.20
2018-06-25T23:54:07.582Z,73.23
2018-06-25T23:56:37.931Z,73.17
2018-06-25T23:59:08.167Z,73.17
